Time;durP1;ratioP1;P1;durP2;ratioP2;P2;SDS_P1;SDS_P2;PMS_P1;PMS_P2;Temp;Humidity;BMP_temperature;BMP_pressure;BME280_temperature;BME280_humidity;BME280_pressure;Samples;Min_cycle;Max_cycle;Signal;HPM_P1;HPM_P2
2021/07/15 00:00:21;;;;;;;1.00;0.20;;;13.10;99.90;;;14.18;72.93;94044.81;5011296;28;20534;-74
2021/07/15 00:02:47;;;;;;;0.20;0.20;;;13.10;99.90;;;14.19;72.96;94038.44;5022136;28;20232;-72
2021/07/15 00:05:14;;;;;;;0.53;0.20;;;13.10;99.90;;;14.19;72.89;94033.09;5024828;28;20193;-72
2021/07/15 00:07:43;;;;;;;0.20;0.20;;;13.10;99.90;;;14.20;73.18;94032.03;5021258;28;20208;-73
2021/07/15 00:10:19;;;;;;;0.20;0.20;;;13.10;99.90;;;14.20;73.15;94024.81;5018154;28;20199;-72
2021/07/15 00:12:46;;;;;;;0.50;0.30;;;13.10;99.90;;;14.12;73.26;94014.78;5021160;28;20206;-71
2021/07/15 00:15:16;;;;;;;0.20;0.20;;;13.10;99.90;;;14.16;73.37;94013.13;5035769;28;20286;-71
2021/07/15 00:17:42;;;;;;;0.40;0.30;;;13.10;99.90;;;14.20;73.33;94016.81;5029149;28;20253;-72
2021/07/15 00:20:12;;;;;;;0.20;0.20;;;13.10;99.90;;;14.18;73.47;94004.84;5019161;28;20194;-73
2021/07/15 00:22:42;;;;;;;0.23;0.10;;;13.10;99.90;;;14.12;73.27;94003.31;5027483;28;20211;-72
2021/07/15 00:25:16;;;;;;;0.53;0.20;;;13.10;99.90;;;14.07;73.57;94006.81;5033575;28;20215;-73
2021/07/15 00:27:42;;;;;;;0.37;0.20;;;13.00;99.90;;;14.00;73.29;93998.38;5037767;28;20227;-73
2021/07/15 00:30:10;;;;;;;0.20;0.20;;;13.00;99.90;;;14.01;73.57;94002.63;5045971;28;20382;-73
2021/07/15 00:32:36;;;;;;;0.40;0.20;;;12.90;99.90;;;14.01;73.49;94001.81;5027294;28;20209;-71
2021/07/15 00:35:05;;;;;;;0.53;0.10;;;13.00;99.90;;;14.02;73.65;93993.56;5029355;28;20342;-72
2021/07/15 00:37:31;;;;;;;0.20;0.20;;;13.00;99.90;;;13.99;73.70;93988.81;5029345;28;20207;-73
2021/07/15 00:39:56;;;;;;;0.67;0.20;;;12.90;99.90;;;13.97;73.78;93988.28;5046271;28;20757;-72
2021/07/15 00:42:22;;;;;;;0.20;0.20;;;12.90;99.90;;;13.97;73.48;93985.59;5016257;28;20205;-72
2021/07/15 00:44:48;;;;;;;0.33;0.10;;;12.90;99.90;;;13.95;73.71;93990.44;5047330;28;20201;-72
2021/07/15 00:47:14;;;;;;;0.40;0.20;;;12.90;99.90;;;13.98;73.70;93989.06;5045716;28;20198;-73
2021/07/15 00:49:40;;;;;;;0.43;0.10;;;13.10;99.90;;;13.91;73.66;93977.94;5024581;28;20306;-73
2021/07/15 00:52:11;;;;;;;0.10;0.10;;;12.80;99.90;;;13.95;73.97;93982.44;5023883;28;20212;-72
2021/07/15 00:54:49;;;;;;;1.10;0.13;;;12.90;99.90;;;13.98;73.71;93986.41;5012606;28;20305;-72
2021/07/15 00:57:15;;;;;;;0.10;0.10;;;12.90;99.90;;;13.91;73.95;93977.94;5027845;28;20266;-73
2021/07/15 00:59:41;;;;;;;0.00;0.00;;;12.80;99.90;;;13.84;74.28;93980.97;5024299;28;20250;-73
2021/07/15 01:02:07;;;;;;;0.40;0.10;;;12.80;99.90;;;13.85;73.98;93978.03;5047618;28;20191;-72
2021/07/15 01:04:35;;;;;;;0.20;0.00;;;12.80;99.90;;;13.90;74.05;93985.16;5025777;28;20836;-73
2021/07/15 01:07:01;;;;;;;0.10;0.10;;;12.80;99.90;;;13.90;74.11;93971.06;5034061;28;20243;-72
2021/07/15 01:09:28;;;;;;;0.10;0.10;;;12.80;99.90;;;13.88;74.18;93972.13;5006509;28;20200;-72
2021/07/15 01:12:29;;;;;;;0.00;0.00;;;12.80;99.90;;;13.96;74.38;93977.91;5047941;28;20751;-72
2021/07/15 01:15:03;;;;;;;0.20;0.10;;;12.80;99.90;;;13.94;74.21;93972.06;5024266;28;20184;-72
2021/07/15 01:17:47;;;;;;;0.10;0.10;;;12.80;99.90;;;13.94;74.17;93974.72;5026568;28;20217;-72
2021/07/15 01:21:01;;;;;;;0.10;0.10;;;12.80;99.90;;;13.96;74.40;93967.25;5053042;28;20200;-72
2021/07/15 01:24:06;;;;;;;0.10;0.10;;;12.90;99.90;;;13.95;74.09;93968.31;5015496;28;20704;-71
2021/07/15 01:27:09;;;;;;;0.23;0.10;;;12.80;99.90;;;13.95;74.23;93968.31;5022022;28;20296;-71
2021/07/15 01:29:59;;;;;;;0.30;0.10;;;12.80;99.90;;;13.88;74.50;93969.47;5024384;28;20194;-72
2021/07/15 01:32:33;;;;;;;0.00;0.00;;;12.80;99.90;;;13.84;74.45;93960.44;5026795;28;20199;-73
2021/07/15 01:35:05;;;;;;;0.10;0.10;;;12.80;99.90;;;13.85;74.59;93961.25;5022075;28;20195;-72
2021/07/15 01:37:34;;;;;;;0.50;0.07;;;12.80;99.90;;;13.85;74.47;93954.03;5032863;28;20213;-73
2021/07/15 01:40:04;;;;;;;0.20;0.10;;;12.80;99.90;;;13.88;74.39;93956.13;5008468;28;20270;-72
2021/07/15 01:42:33;;;;;;;0.00;0.00;;;12.80;99.90;;;13.90;74.32;93933.75;5000458;28;20957;-71
2021/07/15 01:44:59;;;;;;;0.53;0.10;;;12.80;99.90;;;13.86;74.65;93936.19;5007943;28;20239;-72
2021/07/15 01:47:29;;;;;;;0.33;0.10;;;12.80;99.90;;;13.95;74.65;93947.81;5024331;28;20201;-71
2021/07/15 01:49:59;;;;;;;0.50;0.10;;;12.80;99.90;;;13.88;74.91;93934.81;5008343;28;20797;-71
2021/07/15 01:52:27;;;;;;;0.20;0.10;;;12.80;99.90;;;13.91;74.74;93936.13;5031698;28;20216;-71
2021/07/15 01:54:53;;;;;;;0.10;0.10;;;12.80;99.90;;;13.93;74.57;93933.19;5050017;28;20209;-72
2021/07/15 01:57:22;;;;;;;0.40;0.10;;;12.80;99.90;;;13.91;75.01;93936.13;5053903;28;20595;-71
2021/07/15 01:59:50;;;;;;;0.00;0.00;;;12.80;99.90;;;13.96;74.89;93938.75;5019297;28;20188;-72
2021/07/15 02:02:22;;;;;;;0.27;0.00;;;13.00;99.90;;;13.95;74.72;93947.00;5032099;28;20190;-72
2021/07/15 02:04:48;;;;;;;0.20;0.10;;;12.90;99.90;;;13.86;75.10;93934.31;5012875;28;20208;-73
2021/07/15 02:07:16;;;;;;;0.43;0.07;;;12.80;99.90;;;13.91;75.19;93936.13;5030777;28;20197;-71
2021/07/15 02:09:42;;;;;;;0.30;0.10;;;12.80;99.90;;;14.00;74.89;93931.75;5027333;28;20270;-71
2021/07/15 02:12:11;;;;;;;1.03;0.20;;;13.10;99.90;;;13.91;74.79;93924.66;5008744;28;20666;-73
2021/07/15 02:14:37;;;;;;;0.20;0.10;;;12.80;99.90;;;13.98;75.08;93931.25;5037206;28;20279;-72
2021/07/15 02:17:04;;;;;;;0.47;0.20;;;12.80;99.90;;;13.98;75.01;93925.91;5024565;28;20208;-70
2021/07/15 02:19:33;;;;;;;0.10;0.10;;;12.80;99.90;;;14.03;75.50;93928.53;5029643;28;20237;-71
2021/07/15 02:21:59;;;;;;;0.67;0.13;;;12.80;99.90;;;13.98;75.18;93915.25;5019315;28;20236;-70
2021/07/15 02:24:28;;;;;;;1.13;0.23;;;12.80;99.90;;;13.97;75.30;93916.31;5005678;28;20244;-72
2021/07/15 02:26:57;;;;;;;1.47;0.30;;;12.80;99.90;;;13.98;75.11;93915.25;5028140;28;20200;-71
2021/07/15 02:29:23;;;;;;;0.40;0.20;;;12.80;99.90;;;13.92;74.99;93911.06;5020329;28;20269;-70
2021/07/15 02:31:58;;;;;;;0.23;0.10;;;12.80;99.90;;;13.90;75.27;93921.19;5008597;28;20210;-71
2021/07/15 02:34:30;;;;;;;0.10;0.10;;;12.80;99.90;;;13.93;75.21;93911.88;5004336;28;20196;-72
2021/07/15 02:36:59;;;;;;;0.47;0.10;;;12.80;99.90;;;13.93;75.30;93912.66;5025438;28;20549;-71
2021/07/15 02:39:26;;;;;;;0.27;0.13;;;12.80;99.90;;;13.93;75.28;93903.88;5014648;28;20192;-71
2021/07/15 02:41:52;;;;;;;0.63;0.10;;;12.90;99.90;;;13.84;75.44;93903.69;5022222;28;20208;-69
2021/07/15 02:44:18;;;;;;;1.00;0.10;;;12.70;99.90;;;13.85;75.41;93897.31;4997448;28;20277;-70
2021/07/15 02:46:46;;;;;;;1.40;0.73;;;12.80;99.90;;;13.78;75.42;93899.50;5006868;28;20218;-71
2021/07/15 02:49:12;;;;;;;0.30;0.20;;;12.70;99.90;;;13.78;75.54;93897.66;5008280;28;20286;-72
2021/07/15 02:51:41;;;;;;;0.10;0.10;;;12.70;99.90;;;13.81;75.56;93899.75;5004992;28;20200;-70
2021/07/15 02:54:07;;;;;;;0.67;0.20;;;12.70;99.90;;;13.80;75.38;93903.47;4997891;28;20656;-71
2021/07/15 02:57:03;;;;;;;0.10;0.10;;;12.90;99.90;;;13.96;75.73;93908.63;5019621;28;20729;-71
2021/07/15 02:59:35;;;;;;;0.10;0.10;;;12.80;99.90;;;13.92;75.42;93902.28;4987887;28;20193;-71
2021/07/15 03:02:13;;;;;;;0.20;0.10;;;12.90;99.90;;;13.94;75.45;93890.25;5011208;28;20675;-71
2021/07/15 03:05:09;;;;;;;0.10;0.10;;;12.90;99.90;;;14.00;75.73;93910.44;5008291;28;20208;-70
2021/07/15 03:07:48;;;;;;;0.10;0.10;;;12.90;99.90;;;13.95;75.79;93907.84;4996344;28;21063;-72
2021/07/15 03:10:17;;;;;;;1.00;0.10;;;12.90;99.90;;;13.98;75.81;93904.59;4992600;28;20651;-71
2021/07/15 03:12:44;;;;;;;0.10;0.10;;;12.90;99.90;;;13.96;75.74;93905.97;5015414;28;20202;-71
2021/07/15 03:15:11;;;;;;;0.20;0.20;;;12.90;99.90;;;13.91;76.02;93914.00;5033140;28;20310;-72
2021/07/15 03:17:48;;;;;;;0.20;0.10;;;12.90;99.90;;;13.93;76.20;93923.31;5027642;28;20223;-71
2021/07/15 03:20:34;;;;;;;2.43;0.10;;;12.90;99.90;;;13.96;75.94;93920.09;5027442;28;20207;-71
2021/07/15 03:23:05;;;;;;;1.37;0.17;;;12.90;99.90;;;14.03;75.87;93917.09;5023998;28;20664;-71
2021/07/15 03:25:34;;;;;;;0.20;0.10;;;13.00;99.90;;;14.04;76.08;93930.09;5010344;28;20203;-70
2021/07/15 03:28:06;;;;;;;0.20;0.13;;;13.00;99.90;;;14.04;76.04;93910.66;5010366;28;20191;-71
2021/07/15 03:30:35;;;;;;;1.07;0.20;;;12.90;99.90;;;13.93;75.78;93902.00;5011627;28;20185;-71
2021/07/15 03:33:02;;;;;;;0.27;0.20;;;12.90;99.90;;;14.00;75.79;93901.66;5022445;28;20259;-73
2021/07/15 03:35:31;;;;;;;0.30;0.20;;;12.90;99.90;;;13.96;76.36;93901.44;5014643;28;20210;-70
2021/07/15 03:37:58;;;;;;;0.77;0.20;;;12.90;99.90;;;13.96;75.96;93905.97;5012709;28;20223;-71
2021/07/15 03:40:27;;;;;;;0.10;0.10;;;12.90;99.90;;;13.94;76.03;93898.25;5011360;28;20718;-71
2021/07/15 03:42:59;;;;;;;0.20;0.17;;;12.90;99.90;;;13.91;76.43;93896.16;5028973;28;20216;-72
2021/07/15 03:45:28;;;;;;;0.40;0.10;;;13.20;99.90;;;13.93;76.33;93891.34;5010407;28;20173;-72
2021/07/15 03:47:56;;;;;;;0.13;0.10;;;12.70;99.90;;;13.91;76.13;93896.16;5025412;28;20189;-72
2021/07/15 03:50:28;;;;;;;0.97;0.20;;;12.90;99.90;;;13.91;76.17;93893.50;5029472;28;21080;-71
2021/07/15 03:53:05;;;;;;;0.07;0.00;;;12.80;99.90;;;13.97;76.14;93911.00;5023507;28;20221;-71
2021/07/15 03:55:37;;;;;;;0.00;0.00;;;12.80;99.90;;;14.00;76.05;93902.44;5035308;28;20187;-71
2021/07/15 03:58:07;;;;;;;0.00;0.00;;;12.90;99.90;;;14.04;76.29;93897.31;5024048;28;20203;-71
2021/07/15 04:00:34;;;;;;;1.30;0.10;;;12.90;99.90;;;14.02;76.11;93894.16;5020120;28;20242;-72
2021/07/15 04:03:06;;;;;;;0.07;0.00;;;12.90;99.90;;;14.03;76.45;93893.91;5028072;28;20193;-73
2021/07/15 04:05:34;;;;;;;0.40;0.10;;;12.90;99.90;;;14.03;76.08;93885.91;5026455;28;20619;-71
2021/07/15 04:08:02;;;;;;;0.17;0.10;;;12.90;99.90;;;14.05;76.27;93901.59;5013633;28;20637;-70
2021/07/15 04:10:35;;;;;;;0.10;0.10;;;12.80;99.90;;;14.00;76.42;93899.78;5027047;28;20192;-71
2021/07/15 04:13:08;;;;;;;0.00;0.00;;;12.90;99.90;;;14.00;76.44;93899.78;5021193;28;20193;-73
2021/07/15 04:16:21;;;;;;;0.17;0.17;;;12.90;99.90;;;14.02;76.46;93905.63;5031869;28;20213;-70
2021/07/15 04:18:52;;;;;;;0.10;0.10;;;12.80;99.90;;;13.96;76.43;93905.97;5025625;28;20245;-72
2021/07/15 04:21:19;;;;;;;0.20;0.10;;;12.80;99.90;;;13.99;76.49;93908.06;5034973;28;20219;-72
2021/07/15 04:23:45;;;;;;;0.00;0.00;;;12.80;99.90;;;14.02;76.76;93904.81;5024085;28;20217;-71
2021/07/15 04:26:13;;;;;;;0.87;0.10;;;12.90;99.90;;;14.01;76.49;93909.34;5009808;28;20231;-72
2021/07/15 04:28:42;;;;;;;0.17;0.10;;;12.90;99.90;;;14.02;76.50;93910.94;5037198;28;20277;-71
2021/07/15 04:31:56;;;;;;;0.73;0.10;;;12.90;99.90;;;14.07;76.58;93918.09;5034729;28;20195;-71
2021/07/15 04:34:26;;;;;;;0.10;0.10;;;12.90;99.90;;;14.05;76.41;93897.06;5023474;28;20275;-71
2021/07/15 04:36:55;;;;;;;0.33;0.10;;;13.00;99.90;;;13.99;76.58;93898.19;5024103;28;20256;-72
2021/07/15 04:39:26;;;;;;;0.10;0.00;;;12.90;99.90;;;14.03;76.46;93896.56;5028523;28;20258;-71
2021/07/15 04:41:55;;;;;;;0.10;0.00;;;13.10;99.90;;;14.09;77.00;93905.28;5018623;28;20195;-70
2021/07/15 04:44:25;;;;;;;0.10;0.10;;;13.00;99.90;;;14.08;76.54;93904.47;5041884;28;20171;-71
2021/07/15 04:46:52;;;;;;;0.57;0.10;;;13.00;99.90;;;14.06;76.45;93909.31;5019920;28;20199;-72
2021/07/15 04:49:19;;;;;;;0.30;0.10;;;13.00;99.90;;;14.07;76.51;93907.44;5024178;28;20231;-70
2021/07/15 04:51:46;;;;;;;0.80;0.20;;;13.00;99.90;;;14.07;76.89;93902.13;5019847;28;20636;-72
2021/07/15 04:54:14;;;;;;;0.23;0.10;;;13.00;99.90;;;14.10;76.57;93922.88;5025074;28;20195;-71
2021/07/15 04:56:43;;;;;;;0.97;0.10;;;13.00;99.90;;;14.07;76.61;93910.88;5011188;28;20200;-71
2021/07/15 04:59:15;;;;;;;0.77;0.10;;;13.00;99.90;;;14.09;76.60;93922.06;5022027;28;20305;-72
2021/07/15 05:01:41;;;;;;;0.13;0.10;;;13.00;99.90;;;14.07;76.87;93910.88;5022166;28;20192;-72
2021/07/15 05:04:07;;;;;;;0.27;0.10;;;13.00;99.90;;;14.08;76.82;93901.81;5052714;28;20220;-71
2021/07/15 05:06:33;;;;;;;1.17;0.20;;;13.00;99.90;;;14.12;77.01;93902.84;5014877;28;20204;-72
2021/07/15 05:08:59;;;;;;;1.20;0.10;;;13.00;99.90;;;14.20;76.76;93891.50;5037550;28;20204;-72
2021/07/15 05:11:25;;;;;;;0.20;0.10;;;13.10;99.90;;;14.23;76.97;93893.63;5026364;28;20206;-71
2021/07/15 05:13:51;;;;;;;0.53;0.20;;;13.10;99.90;;;14.32;77.02;93896.44;5024416;28;20192;-72
2021/07/15 05:16:21;;;;;;;0.23;0.00;;;13.20;99.90;;;14.39;76.90;93896.91;5006876;28;20251;-72
2021/07/15 05:18:47;;;;;;;0.63;0.17;;;13.30;99.90;;;14.49;76.79;93907.44;5020024;28;20195;-71
2021/07/15 05:21:15;;;;;;;0.50;0.13;;;13.20;99.90;;;14.48;76.93;93907.72;5017570;28;20660;-72
2021/07/15 05:23:41;;;;;;;0.30;0.10;;;13.50;99.90;;;14.56;76.93;93913.22;5023748;28;20280;-71
2021/07/15 05:26:07;;;;;;;0.10;0.10;;;13.70;99.90;;;14.70;76.97;93915.94;5021456;28;20714;-69
2021/07/15 05:28:35;;;;;;;0.97;0.10;;;13.90;99.90;;;14.72;76.82;93903.91;5021996;28;20189;-71
2021/07/15 05:31:05;;;;;;;0.40;0.10;;;14.00;99.90;;;14.77;76.95;93917.16;5005833;28;20680;-72
2021/07/15 05:33:34;;;;;;;3.87;0.10;;;13.70;99.90;;;14.81;76.95;93917.38;4999883;28;20191;-70
2021/07/15 05:36:00;;;;;;;0.00;0.00;;;13.80;99.90;;;14.74;76.88;93909.72;5021515;28;20217;-72
2021/07/15 05:38:29;;;;;;;0.00;0.00;;;13.80;99.90;;;14.76;77.12;93917.44;5028586;28;20252;-71
2021/07/15 05:40:55;;;;;;;0.83;0.10;;;13.80;99.90;;;14.77;76.88;93903.81;5041393;28;20730;-72
2021/07/15 05:43:21;;;;;;;0.10;0.10;;;13.80;99.90;;;14.78;76.85;93909.94;5005135;28;20207;-72
2021/07/15 05:45:46;;;;;;;0.60;0.10;;;13.80;99.90;;;14.84;77.12;93911.47;5023946;28;20674;-72
2021/07/15 05:48:12;;;;;;;0.00;0.00;;;13.80;99.90;;;14.74;76.84;93903.63;5027612;28;20215;-71
2021/07/15 05:50:38;;;;;;;1.13;0.10;;;13.80;99.90;;;14.82;77.13;93908.28;5005729;28;20664;-72
2021/07/15 05:53:04;;;;;;;0.67;0.10;;;13.80;99.90;;;14.79;77.00;93906.19;5023800;28;20192;-72
2021/07/15 05:55:33;;;;;;;0.20;0.10;;;13.80;99.90;;;14.90;77.17;93915.66;4990351;28;20655;-71
2021/07/15 05:57:59;;;;;;;0.00;0.00;;;13.90;99.90;;;14.93;76.96;93916.94;5016200;28;20219;-72
2021/07/15 06:00:25;;;;;;;0.20;0.20;;;13.90;99.90;;;14.96;77.01;93900.34;5021328;28;20204;-71
2021/07/15 06:02:52;;;;;;;0.20;0.10;;;14.00;99.90;;;14.95;77.08;93912.09;5007606;28;20848;-71
2021/07/15 06:05:18;;;;;;;0.20;0.10;;;14.00;99.90;;;14.88;76.98;93907.13;5023918;28;20201;-73
2021/07/15 06:07:44;;;;;;;0.10;0.10;;;14.00;99.90;;;14.92;77.27;93913.47;5028454;28;20288;-73
2021/07/15 06:10:12;;;;;;;0.47;0.10;;;14.00;99.90;;;14.92;77.08;93904.66;5024512;28;20195;-71
2021/07/15 06:12:38;;;;;;;0.70;0.07;;;14.00;99.90;;;14.86;76.92;93909.28;5024409;28;20195;-71
2021/07/15 06:15:05;;;;;;;0.13;0.00;;;13.90;99.90;;;14.97;77.00;93905.41;5022028;28;20195;-70
2021/07/15 06:17:31;;;;;;;0.77;0.10;;;14.00;99.90;;;14.92;76.97;93902.00;5018861;28;20253;-73
2021/07/15 06:19:57;;;;;;;0.40;0.20;;;14.00;99.90;;;15.02;77.14;93897.28;5022665;28;20184;-72
2021/07/15 06:22:26;;;;;;;0.57;0.23;;;14.00;99.90;;;15.02;76.79;93886.63;5023391;28;20198;-72
2021/07/15 06:24:52;;;;;;;1.17;0.10;;;14.10;99.90;;;15.03;77.21;93890.09;5019798;28;20197;-72
2021/07/15 06:27:18;;;;;;;0.20;0.20;;;14.00;99.90;;;15.12;77.24;93894.47;5014967;28;20199;-71
2021/07/15 06:29:44;;;;;;;0.40;0.30;;;14.10;99.90;;;15.21;77.07;93889.25;5014524;28;20239;-72
2021/07/15 06:32:10;;;;;;;0.80;0.20;;;14.20;99.90;;;15.29;77.22;93892.03;5026600;28;20199;-73
2021/07/15 06:34:36;;;;;;;0.37;0.20;;;14.30;99.90;;;15.22;77.10;93891.63;5006518;28;20208;-72
2021/07/15 06:37:07;;;;;;;0.50;0.30;;;14.20;99.90;;;15.34;77.32;93907.19;5024707;28;20777;-72
2021/07/15 06:39:35;;;;;;;0.70;0.50;;;14.30;99.90;;;15.37;77.31;93910.06;5018864;28;20781;-73
2021/07/15 06:42:04;;;;;;;0.70;0.60;;;14.40;99.90;;;15.38;77.20;93903.63;5023024;28;20193;-72
2021/07/15 06:44:33;;;;;;;0.63;0.50;;;14.40;99.90;;;15.40;77.11;93903.34;5019589;28;20191;-72
2021/07/15 06:46:59;;;;;;;2.40;0.40;;;14.40;99.90;;;15.37;77.11;93907.41;5031338;28;20224;-72
2021/07/15 06:49:26;;;;;;;1.27;0.30;;;14.40;99.90;;;15.54;77.10;93914.09;5020810;28;20196;-72
2021/07/15 06:51:54;;;;;;;0.40;0.20;;;14.50;99.90;;;15.54;77.18;93914.09;5031828;28;20200;-71
2021/07/15 06:54:20;;;;;;;1.07;0.20;;;14.50;99.90;;;15.52;77.15;93910.91;5038728;28;20545;-73
2021/07/15 06:56:49;;;;;;;0.30;0.20;;;14.60;99.90;;;15.39;77.19;93907.09;5031260;28;20250;-72
2021/07/15 06:59:15;;;;;;;0.43;0.20;;;14.50;99.90;;;15.40;77.13;93906.00;5026881;28;20182;-74
2021/07/15 07:01:43;;;;;;;0.37;0.23;;;14.50;99.90;;;15.39;77.07;93923.91;5043091;28;20326;-72
2021/07/15 07:04:09;;;;;;;0.30;0.30;;;14.60;99.90;;;15.40;77.11;93927.38;5025621;28;20209;-71
2021/07/15 07:06:35;;;;;;;0.90;0.30;;;14.40;99.90;;;15.46;77.19;93920.84;5025270;28;20620;-70
2021/07/15 07:09:00;;;;;;;0.93;0.90;;;14.40;99.90;;;15.55;76.88;93926.34;5025498;28;20224;-70
2021/07/15 07:11:28;;;;;;;0.20;0.20;;;14.50;99.90;;;15.55;77.02;93923.66;5022558;28;20196;-72
2021/07/15 07:13:54;;;;;;;0.20;0.20;;;14.50;99.90;;;15.53;77.03;93917.84;5011824;28;20264;-72
2021/07/15 07:16:22;;;;;;;0.30;0.27;;;14.50;99.90;;;15.55;76.94;93921.78;5009525;28;20205;-72
2021/07/15 07:18:48;;;;;;;0.30;0.20;;;14.50;99.90;;;15.55;76.97;93929.78;5007746;28;20227;-71
2021/07/15 07:21:15;;;;;;;0.37;0.30;;;14.50;99.90;;;15.56;77.00;93923.38;5026375;28;20204;-71
2021/07/15 07:23:46;;;;;;;0.30;0.20;;;14.50;99.90;;;15.68;77.15;93939.72;5026707;28;20714;-73
2021/07/15 07:26:12;;;;;;;0.20;0.20;;;14.60;99.90;;;15.71;76.91;93935.69;5027503;28;20241;-72
2021/07/15 07:28:37;;;;;;;0.17;0.17;;;14.60;99.90;;;15.80;76.89;93945.41;5025301;28;20669;-72
2021/07/15 07:31:08;;;;;;;0.30;0.23;;;14.70;99.90;;;15.87;76.90;93939.66;5026301;28;20202;-72
2021/07/15 07:33:34;;;;;;;0.10;0.10;;;14.80;99.90;;;15.88;76.75;93935.91;5018289;28;20199;-73
2021/07/15 07:36:00;;;;;;;1.20;0.80;;;14.80;99.90;;;15.95;76.75;93936.28;5011791;28;20239;-72
2021/07/15 07:38:27;;;;;;;0.33;0.20;;;14.80;99.90;;;16.03;76.75;93940.94;5026622;28;20201;-71
2021/07/15 07:40:55;;;;;;;0.10;0.10;;;14.90;99.90;;;16.16;77.13;93937.47;5030723;28;20672;-73
2021/07/15 07:43:24;;;;;;;1.60;0.23;;;15.00;99.90;;;16.32;76.91;93946.78;5029805;28;20194;-73
2021/07/15 07:45:50;;;;;;;0.20;0.20;;;15.20;99.90;;;16.40;76.85;93943.41;5011378;28;20189;-71
2021/07/15 07:48:16;;;;;;;0.10;0.10;;;15.30;99.90;;;16.49;76.69;93934.66;5025832;28;20330;-71
2021/07/15 07:50:45;;;;;;;0.20;0.10;;;15.40;99.90;;;16.58;76.69;93951.66;5019845;28;20283;-71
2021/07/15 07:53:11;;;;;;;0.47;0.20;;;15.50;99.90;;;16.63;76.65;93946.97;5029894;28;20191;-70
2021/07/15 07:55:37;;;;;;;0.03;0.03;;;15.50;99.90;;;16.77;76.58;93953.09;5023626;28;20297;-70
2021/07/15 07:58:04;;;;;;;0.10;0.10;;;15.70;99.90;;;16.85;76.49;93954.25;5027103;28;20269;-72
2021/07/15 08:00:32;;;;;;;1.30;0.10;;;15.80;99.90;;;16.81;76.60;93950.59;5038366;28;20225;-71
2021/07/15 08:02:58;;;;;;;0.50;0.10;;;15.80;99.90;;;16.90;76.65;93949.59;5027867;28;20842;-72
2021/07/15 08:05:25;;;;;;;0.77;0.20;;;15.90;99.90;;;17.02;76.21;93951.75;5012687;28;20203;-71
2021/07/15 08:07:51;;;;;;;1.20;0.20;;;16.00;99.90;;;16.98;76.42;93958.78;5011284;28;20272;-72
2021/07/15 08:10:19;;;;;;;0.10;0.10;;;16.00;99.90;;;16.92;76.51;93970.72;5010886;28;20239;-71
2021/07/15 08:12:45;;;;;;;0.90;0.27;;;15.90;99.90;;;17.03;76.54;93944.47;5024916;28;20573;-71
2021/07/15 08:15:13;;;;;;;0.60;0.20;;;16.00;99.90;;;17.03;76.31;93950.63;5023793;28;20284;-71
2021/07/15 08:17:40;;;;;;;0.20;0.20;;;16.00;99.90;;;17.07;76.23;93954.28;5025026;28;20225;-71
2021/07/15 08:20:08;;;;;;;2.00;0.10;;;16.00;99.90;;;17.04;76.27;93962.94;5016926;28;20244;-69
2021/07/15 08:22:34;;;;;;;0.10;0.10;;;16.00;99.90;;;16.96;76.13;93944.91;5009491;28;20661;-69
2021/07/15 08:25:00;;;;;;;1.00;0.17;;;16.00;99.90;;;17.03;76.29;93953.31;5023414;28;20784;-71
2021/07/15 08:27:31;;;;;;;0.40;0.30;;;16.00;99.90;;;17.07;75.97;93956.97;5017109;28;20661;-72
2021/07/15 08:29:59;;;;;;;0.97;0.10;;;16.00;99.90;;;17.15;76.04;93964.28;5017009;28;20202;-72
2021/07/15 08:32:25;;;;;;;0.10;0.10;;;16.10;99.90;;;17.18;76.24;93971.72;5021404;28;20205;-71
2021/07/15 08:34:52;;;;;;;0.60;0.20;;;16.10;99.90;;;17.26;76.06;93970.97;5040928;28;20197;-70
2021/07/15 08:37:18;;;;;;;0.10;0.10;;;16.20;99.90;;;17.28;75.82;93974.16;5015525;28;20210;-71
2021/07/15 08:39:47;;;;;;;0.50;0.10;;;16.20;99.90;;;17.34;75.83;93974.81;5009245;28;20262;-72
2021/07/15 08:42:14;;;;;;;0.30;0.20;;;16.30;99.90;;;17.43;76.01;93981.81;5038375;28;20207;-72
2021/07/15 08:44:40;;;;;;;0.70;0.17;;;16.30;99.90;;;17.56;75.82;93972.16;5038818;28;20255;-71
2021/07/15 08:47:08;;;;;;;0.10;0.10;;;16.50;99.90;;;17.68;75.50;93977.78;5013657;28;20209;-69
2021/07/15 08:49:38;;;;;;;0.50;0.40;;;16.70;99.90;;;17.76;75.66;93981.59;5026444;28;20195;-70
2021/07/15 08:52:07;;;;;;;0.27;0.10;;;16.70;99.90;;;17.80;75.95;93979.88;5022969;28;20194;-71
2021/07/15 08:57:21;;;;;;;0.10;0.10;;;16.80;99.90;;;17.82;75.74;93964.28;5024534;28;21107;-71
2021/07/15 08:59:47;;;;;;;0.73;0.20;;;16.80;99.90;;;17.82;75.48;93962.41;5032368;28;20194;-70
2021/07/15 09:02:19;;;;;;;0.30;0.10;;;16.80;99.90;;;17.72;75.34;93986.78;5006548;28;20198;-72
2021/07/15 09:04:47;;;;;;;0.23;0.10;;;16.70;99.90;;;17.76;75.54;93981.59;5056578;28;20225;-71
2021/07/15 09:07:14;;;;;;;0.10;0.10;;;16.70;99.90;;;17.71;75.60;93968.31;5014544;28;20187;-73
2021/07/15 09:09:48;;;;;;;0.10;0.10;;;16.70;99.90;;;17.73;75.37;93984.88;5011074;28;20288;-71
2021/07/15 09:12:17;;;;;;;0.67;0.30;;;16.70;99.90;;;17.78;75.48;93992.81;5027643;28;20192;-71
2021/07/15 09:14:54;;;;;;;1.03;0.10;;;16.70;99.90;;;17.81;75.29;93979.56;5029423;28;20281;-70
2021/07/15 09:17:29;;;;;;;0.47;0.10;;;16.40;99.90;;;17.79;75.14;93991.72;5021855;28;20733;-70
2021/07/15 09:19:55;;;;;;;0.10;0.07;;;16.70;99.90;;;17.87;75.14;93983.72;5025477;28;20289;-70
2021/07/15 09:22:24;;;;;;;1.40;0.30;;;16.80;99.90;;;17.91;75.04;93981.19;5033482;28;20197;-72
2021/07/15 09:24:51;;;;;;;0.20;0.10;;;16.90;99.90;;;18.09;75.03;93990.94;5027888;28;20189;-72
2021/07/15 09:27:22;;;;;;;0.40;0.30;;;17.00;99.90;;;18.15;74.93;93987.00;5017181;28;20669;-73
2021/07/15 09:30:14;;;;;;;0.60;0.20;;;17.10;99.90;;;18.16;74.86;93993.16;5026316;28;20198;-73
2021/07/15 09:32:56;;;;;;;2.70;0.10;;;17.10;99.90;;;18.19;75.06;93998.72;5019637;28;20859;-72
2021/07/15 09:35:31;;;;;;;0.10;0.10;;;17.10;99.90;;;18.26;74.76;93995.59;5039343;28;20211;-73
2021/07/15 09:38:19;;;;;;;0.40;0.20;;;17.20;99.90;;;18.37;74.85;93992.28;5011916;28;20208;-73
2021/07/15 09:41:01;;;;;;;0.30;0.20;;;17.30;99.90;;;18.44;74.66;94006.06;5018814;28;20255;-73
2021/07/15 09:43:31;;;;;;;0.50;0.10;;;17.40;99.90;;;18.34;74.73;93986.75;5006760;28;20189;-72
2021/07/15 09:46:01;;;;;;;0.30;0.20;;;17.30;99.90;;;18.18;74.56;93988.28;5027761;28;20661;-72
2021/07/15 09:48:28;;;;;;;0.50;0.40;;;17.20;99.90;;;18.18;74.24;93991.75;5020712;28;20199;-71
2021/07/15 09:51:00;;;;;;;0.60;0.60;;;17.30;99.90;;;18.16;74.37;94006.59;5009051;28;20195;-73
2021/07/15 09:53:33;;;;;;;0.20;0.10;;;17.20;99.90;;;18.10;74.20;94008.59;5025387;28;20205;-70
2021/07/15 09:56:08;;;;;;;1.07;0.20;;;17.20;99.90;;;18.19;74.68;94009.44;5015949;28;21111;-73
2021/07/15 09:58:46;;;;;;;0.20;0.20;;;17.20;99.90;;;18.24;74.54;94014.66;5016336;28;20193;-73
2021/07/15 10:01:20;;;;;;;8.47;7.80;;;17.30;99.90;;;18.35;74.22;94017.88;5022145;28;20197;-73
2021/07/15 10:03:57;;;;;;;0.20;0.20;;;17.40;99.90;;;18.49;74.34;94015.09;5034769;28;20277;-72
2021/07/15 10:06:25;;;;;;;0.90;0.40;;;17.40;99.90;;;18.54;74.14;94009.59;5016385;28;20205;-73
2021/07/15 10:08:55;;;;;;;0.20;0.20;;;17.60;99.90;;;18.73;74.11;94007.47;5016255;28;20195;-71
2021/07/15 10:11:23;;;;;;;0.20;0.20;;;17.70;99.90;;;18.65;74.18;93992.91;5022281;28;20543;-73
2021/07/15 10:14:04;;;;;;;0.30;0.20;;;17.70;99.90;;;18.59;74.17;94012.16;5017052;28;20225;-74
2021/07/15 10:16:32;;;;;;;0.20;0.20;;;17.70;99.90;;;18.62;74.25;94012.31;5008129;28;20211;-69
2021/07/15 10:18:59;;;;;;;0.37;0.30;;;17.70;99.90;;;18.83;74.19;94017.91;5015052;28;20297;-70
2021/07/15 10:21:31;;;;;;;1.83;1.73;;;17.90;99.90;;;19.15;74.11;94016.69;5007350;28;20184;-71
2021/07/15 10:24:02;;;;;;;0.40;0.40;;;18.10;99.90;;;19.16;74.31;94008.31;5013654;28;20281;-72
2021/07/15 10:26:29;;;;;;;0.10;0.10;;;18.30;99.90;;;18.76;74.02;94001.47;5017780;28;20197;-73
2021/07/15 10:28:55;;;;;;;0.83;0.43;;;18.00;99.90;;;18.63;73.95;93997.81;5022003;28;20283;-71
2021/07/15 10:31:27;;;;;;;0.47;0.20;;;17.80;99.90;;;18.48;74.22;93998.19;5006203;28;20285;-74
2021/07/15 10:33:56;;;;;;;0.40;0.40;;;17.60;99.90;;;18.66;73.89;93997.16;5022324;28;20203;-73